sensor_id;sensor_type;location;lat;lon;timestamp;pressure;altitude;pressure_sealevel;temperature;humidity
14293;BME280;62290;59.420;17.842;2023-12-20T00:01:21;99200.84;;;22.44;24.54
14293;BME280;62290;59.420;17.842;2023-12-20T00:03:50;99203.53;;;22.44;24.67
14293;BME280;62290;59.420;17.842;2023-12-20T00:06:18;99196.47;;;22.43;24.71
14293;BME280;62290;59.420;17.842;2023-12-20T00:08:46;99186.72;;;22.42;24.51
14293;BME280;62290;59.420;17.842;2023-12-20T00:11:14;99193.97;;;22.42;24.58
14293;BME280;62290;59.420;17.842;2023-12-20T00:13:42;99194.78;;;22.42;24.72
14293;BME280;62290;59.420;17.842;2023-12-20T00:16:13;99180.50;;;22.34;24.64
14293;BME280;62290;59.420;17.842;2023-12-20T00:18:41;99199.34;;;22.42;24.72
14293;BME280;62290;59.420;17.842;2023-12-20T00:21:10;99205.53;;;22.42;24.58
14293;BME280;62290;59.420;17.842;2023-12-20T00:23:38;99209.22;;;22.41;24.62
14293;BME280;62290;59.420;17.842;2023-12-20T00:26:06;99198.50;;;22.41;24.66
14293;BME280;62290;59.420;17.842;2023-12-20T00:28:34;99199.34;;;22.42;24.46
14293;BME280;62290;59.420;17.842;2023-12-20T00:31:02;99199.34;;;22.42;24.63
14293;BME280;62290;59.420;17.842;2023-12-20T00:33:31;99191.09;;;22.43;24.69
14293;BME280;62290;59.420;17.842;2023-12-20T00:35:59;99186.19;;;22.31;24.72
14293;BME280;62290;59.420;17.842;2023-12-20T00:38:28;99193.63;;;22.45;24.42
14293;BME280;62290;59.420;17.842;2023-12-20T00:40:56;99198.16;;;22.44;24.64
14293;BME280;62290;59.420;17.842;2023-12-20T00:43:24;99189.09;;;22.45;24.57
14293;BME280;62290;59.420;17.842;2023-12-20T00:45:53;99192.63;;;22.46;24.56
14293;BME280;62290;59.420;17.842;2023-12-20T00:48:22;99190.13;;;22.44;24.51
14293;BME280;62290;59.420;17.842;2023-12-20T00:50:50;99195.31;;;22.46;24.56
14293;BME280;62290;59.420;17.842;2023-12-20T00:53:17;99187.44;;;22.44;24.66
14293;BME280;62290;59.420;17.842;2023-12-20T00:55:47;99187.44;;;22.44;24.47
14293;BME280;62290;59.420;17.842;2023-12-20T00:58:15;99193.78;;;22.43;24.35
14293;BME280;62290;59.420;17.842;2023-12-20T01:00:44;99191.94;;;22.44;24.72
14293;BME280;62290;59.420;17.842;2023-12-20T01:03:12;99186.72;;;22.42;24.61
14293;BME280;62290;59.420;17.842;2023-12-20T01:05:41;99194.78;;;22.42;24.46
14293;BME280;62290;59.420;17.842;2023-12-20T01:08:09;99193.13;;;22.41;24.47
14293;BME280;62290;59.420;17.842;2023-12-20T01:10:37;99187.75;;;22.41;24.70
14293;BME280;62290;59.420;17.842;2023-12-20T01:13:06;99193.97;;;22.42;24.44
14293;BME280;62290;59.420;17.842;2023-12-20T01:15:35;99194.97;;;22.41;24.19
14293;BME280;62290;59.420;17.842;2023-12-20T01:18:03;99199.47;;;22.40;24.63
14293;BME280;62290;59.420;17.842;2023-12-20T01:20:31;99196.13;;;22.38;24.37
14293;BME280;62290;59.420;17.842;2023-12-20T01:22:59;99192.59;;;22.38;24.19
14293;BME280;62290;59.420;17.842;2023-12-20T01:25:27;99196.13;;;22.38;24.52
14293;BME280;62290;59.420;17.842;2023-12-20T01:27:55;99180.19;;;22.37;24.37
14293;BME280;62290;59.420;17.842;2023-12-20T01:30:24;99179.66;;;22.33;24.30
14293;BME280;62290;59.420;17.842;2023-12-20T01:32:52;99189.41;;;22.34;24.41
14293;BME280;62290;59.420;17.842;2023-12-20T01:35:21;99185.03;;;22.33;24.42
14293;BME280;62290;59.420;17.842;2023-12-20T01:37:49;99180.66;;;22.32;24.22
14293;BME280;62290;59.420;17.842;2023-12-20T01:40:17;99181.69;;;22.31;24.30
14293;BME280;62290;59.420;17.842;2023-12-20T01:42:45;99178.28;;;22.29;24.49
14293;BME280;62290;59.420;17.842;2023-12-20T01:45:13;99173.78;;;22.30;24.41
14293;BME280;62290;59.420;17.842;2023-12-20T01:47:42;99166.88;;;22.27;24.20
14293;BME280;62290;59.420;17.842;2023-12-20T01:50:11;99166.88;;;22.27;24.35
14293;BME280;62290;59.420;17.842;2023-12-20T01:52:39;99159.69;;;22.28;24.49
14293;BME280;62290;59.420;17.842;2023-12-20T01:55:07;99158.84;;;22.27;24.37
14293;BME280;62290;59.420;17.842;2023-12-20T01:57:40;99157.00;;;22.28;24.58
14293;BME280;62290;59.420;17.842;2023-12-20T02:00:11;99162.19;;;22.29;24.32
14293;BME280;62290;59.420;17.842;2023-12-20T02:02:42;99160.53;;;22.28;24.53
14293;BME280;62290;59.420;17.842;2023-12-20T02:05:10;99160.34;;;22.30;24.56
14293;BME280;62290;59.420;17.842;2023-12-20T02:07:39;99159.38;;;22.31;24.53
14293;BME280;62290;59.420;17.842;2023-12-20T02:10:07;99160.22;;;22.31;24.69
14293;BME280;62290;59.420;17.842;2023-12-20T02:12:35;99154.00;;;22.31;24.46
14293;BME280;62290;59.420;17.842;2023-12-20T02:15:04;99144.13;;;22.31;24.61
14293;BME280;62290;59.420;17.842;2023-12-20T02:17:33;99144.13;;;22.31;24.77
14293;BME280;62290;59.420;17.842;2023-12-20T02:20:03;99132.31;;;22.24;24.42
14293;BME280;62290;59.420;17.842;2023-12-20T02:22:34;99136.69;;;22.25;24.61
14293;BME280;62290;59.420;17.842;2023-12-20T02:25:02;99148.63;;;22.31;24.49
14293;BME280;62290;59.420;17.842;2023-12-20T02:27:30;99138.88;;;22.30;24.66
14293;BME280;62290;59.420;17.842;2023-12-20T02:29:58;99139.72;;;22.30;24.67
14293;BME280;62290;59.420;17.842;2023-12-20T02:32:26;99126.31;;;22.30;24.73
14293;BME280;62290;59.420;17.842;2023-12-20T02:34:55;99133.38;;;22.31;24.69
14293;BME280;62290;59.420;17.842;2023-12-20T02:37:24;99124.97;;;22.26;24.81
14293;BME280;62290;59.420;17.842;2023-12-20T02:39:53;99132.53;;;22.31;24.95
14293;BME280;62290;59.420;17.842;2023-12-20T02:42:21;99136.19;;;22.30;24.55
14293;BME280;62290;59.420;17.842;2023-12-20T02:44:49;99133.53;;;22.30;24.52
14293;BME280;62290;59.420;17.842;2023-12-20T02:47:17;99118.56;;;22.19;24.44
14293;BME280;62290;59.420;17.842;2023-12-20T02:49:45;99125.78;;;22.27;24.83
14293;BME280;62290;59.420;17.842;2023-12-20T02:52:13;99116.06;;;22.18;24.71
14293;BME280;62290;59.420;17.842;2023-12-20T02:54:41;99120.78;;;22.24;24.65
14293;BME280;62290;59.420;17.842;2023-12-20T02:57:11;99122.28;;;22.26;24.91
14293;BME280;62290;59.420;17.842;2023-12-20T02:59:39;99123.28;;;22.25;24.79
14293;BME280;62290;59.420;17.842;2023-12-20T03:02:07;99123.28;;;22.25;24.83
14293;BME280;62290;59.420;17.842;2023-12-20T03:04:35;99131.16;;;22.27;24.60
14293;BME280;62290;59.420;17.842;2023-12-20T03:07:03;99126.81;;;22.26;24.43
14293;BME280;62290;59.420;17.842;2023-12-20T03:09:31;99126.81;;;22.26;24.54
14293;BME280;62290;59.420;17.842;2023-12-20T03:12:20;99118.75;;;22.26;24.82
14293;BME280;62290;59.420;17.842;2023-12-20T03:14:49;99117.91;;;22.25;24.63
14293;BME280;62290;59.420;17.842;2023-12-20T03:17:17;99118.75;;;22.26;24.71
14293;BME280;62290;59.420;17.842;2023-12-20T03:19:45;99108.88;;;22.26;24.80
14293;BME280;62290;59.420;17.842;2023-12-20T03:22:13;99109.53;;;22.28;24.65
14293;BME280;62290;59.420;17.842;2023-12-20T03:24:41;99098.97;;;22.27;24.79
14293;BME280;62290;59.420;17.842;2023-12-20T03:27:09;99076.97;;;22.15;24.74
14293;BME280;62290;59.420;17.842;2023-12-20T03:29:38;99098.97;;;22.27;24.52
14293;BME280;62290;59.420;17.842;2023-12-20T03:32:06;99099.13;;;22.25;24.88
14293;BME280;62290;59.420;17.842;2023-12-20T03:34:35;99091.25;;;22.24;24.71
14293;BME280;62290;59.420;17.842;2023-12-20T03:37:03;99097.31;;;22.26;24.95
14293;BME280;62290;59.420;17.842;2023-12-20T03:39:31;99089.25;;;22.26;24.76
14293;BME280;62290;59.420;17.842;2023-12-20T03:41:59;99081.19;;;22.26;25.03
14293;BME280;62290;59.420;17.842;2023-12-20T03:44:27;99083.72;;;22.27;24.88
14293;BME280;62290;59.420;17.842;2023-12-20T03:46:56;99073.28;;;22.24;24.69
14293;BME280;62290;59.420;17.842;2023-12-20T03:49:24;99074.66;;;22.28;24.87
14293;BME280;62290;59.420;17.842;2023-12-20T03:51:52;99080.88;;;22.29;24.84
14293;BME280;62290;59.420;17.842;2023-12-20T03:54:20;99077.34;;;22.28;24.85
14293;BME280;62290;59.420;17.842;2023-12-20T03:56:48;99075.50;;;22.29;24.94
14293;BME280;62290;59.420;17.842;2023-12-20T03:59:17;99086.91;;;22.31;24.72
14293;BME280;62290;59.420;17.842;2023-12-20T04:01:45;99091.09;;;22.33;24.65
14293;BME280;62290;59.420;17.842;2023-12-20T04:04:15;99091.09;;;22.33;25.06
14293;BME280;62290;59.420;17.842;2023-12-20T04:06:43;99092.94;;;22.33;24.87
14293;BME280;62290;59.420;17.842;2023-12-20T04:09:11;99079.38;;;22.34;24.60
14293;BME280;62290;59.420;17.842;2023-12-20T04:11:39;99082.06;;;22.34;24.75
14293;BME280;62290;59.420;17.842;2023-12-20T04:14:07;99087.25;;;22.36;24.66
14293;BME280;62290;59.420;17.842;2023-12-20T04:16:35;99079.38;;;22.34;24.92
14293;BME280;62290;59.420;17.842;2023-12-20T04:19:03;99079.19;;;22.36;24.70
14293;BME280;62290;59.420;17.842;2023-12-20T04:21:32;99082.72;;;22.36;24.56
14293;BME280;62290;59.420;17.842;2023-12-20T04:24:00;99078.22;;;22.37;24.67
14293;BME280;62290;59.420;17.842;2023-12-20T04:26:28;99081.03;;;22.35;24.86
14293;BME280;62290;59.420;17.842;2023-12-20T04:28:57;99080.91;;;22.37;24.80
14293;BME280;62290;59.420;17.842;2023-12-20T04:31:25;99084.56;;;22.36;24.57
14293;BME280;62290;59.420;17.842;2023-12-20T04:33:53;99072.31;;;22.33;24.79
14293;BME280;62290;59.420;17.842;2023-12-20T04:36:21;99065.13;;;22.34;24.70
14293;BME280;62290;59.420;17.842;2023-12-20T04:38:50;99066.09;;;22.33;24.55
14293;BME280;62290;59.420;17.842;2023-12-20T04:41:18;99063.44;;;22.33;24.44
14293;BME280;62290;59.420;17.842;2023-12-20T04:43:46;99058.25;;;22.31;24.78
14293;BME280;62290;59.420;17.842;2023-12-20T04:46:14;99058.25;;;22.31;24.51
14293;BME280;62290;59.420;17.842;2023-12-20T04:48:42;99058.25;;;22.31;24.81
14293;BME280;62290;59.420;17.842;2023-12-20T04:51:10;99060.22;;;22.29;24.66
14293;BME280;62290;59.420;17.842;2023-12-20T04:53:38;99046.13;;;22.27;24.75
14293;BME280;62290;59.420;17.842;2023-12-20T04:56:07;99050.66;;;22.27;24.49
14293;BME280;62290;59.420;17.842;2023-12-20T04:58:35;99040.09;;;22.25;24.56
14293;BME280;62290;59.420;17.842;2023-12-20T05:01:03;99048.16;;;22.25;24.46
14293;BME280;62290;59.420;17.842;2023-12-20T05:03:33;99040.28;;;22.24;24.67
14293;BME280;62290;59.420;17.842;2023-12-20T05:06:01;99033.22;;;22.23;24.67
14293;BME280;62290;59.420;17.842;2023-12-20T05:08:30;99033.03;;;22.24;24.42
14293;BME280;62290;59.420;17.842;2023-12-20T05:10:57;99035.72;;;22.24;24.68
14293;BME280;62290;59.420;17.842;2023-12-20T05:13:27;99029.38;;;22.25;24.42
14293;BME280;62290;59.420;17.842;2023-12-20T05:16:07;99032.22;;;22.24;24.48
14293;BME280;62290;59.420;17.842;2023-12-20T05:18:36;99026.88;;;22.24;24.59
14293;BME280;62290;59.420;17.842;2023-12-20T05:21:04;99022.31;;;22.24;24.52
14293;BME280;62290;59.420;17.842;2023-12-20T05:23:32;99023.00;;;22.26;24.79
14293;BME280;62290;59.420;17.842;2023-12-20T05:26:00;99023.81;;;22.27;24.46
14293;BME280;62290;59.420;17.842;2023-12-20T05:28:29;99023.00;;;22.26;24.63
14293;BME280;62290;59.420;17.842;2023-12-20T05:30:58;99025.69;;;22.26;24.73
14293;BME280;62290;59.420;17.842;2023-12-20T05:33:25;99015.09;;;22.25;24.61
14293;BME280;62290;59.420;17.842;2023-12-20T05:35:54;99018.63;;;22.25;24.79
14293;BME280;62290;59.420;17.842;2023-12-20T05:38:21;99019.63;;;22.24;24.64
14293;BME280;62290;59.420;17.842;2023-12-20T05:40:50;99017.78;;;22.25;24.82
14293;BME280;62290;59.420;17.842;2023-12-20T05:43:18;99022.16;;;22.26;24.65
14293;BME280;62290;59.420;17.842;2023-12-20T05:45:48;99014.13;;;22.26;24.88
14293;BME280;62290;59.420;17.842;2023-12-20T05:48:15;99014.97;;;22.26;24.68
14293;BME280;62290;59.420;17.842;2023-12-20T05:50:44;99007.72;;;22.27;24.56
14293;BME280;62290;59.420;17.842;2023-12-20T05:53:11;99009.22;;;22.29;24.83
14293;BME280;62290;59.420;17.842;2023-12-20T05:55:40;99003.72;;;22.31;24.58
14293;BME280;62290;59.420;17.842;2023-12-20T05:58:07;98993.00;;;22.31;24.76
14293;BME280;62290;59.420;17.842;2023-12-20T06:00:35;98985.78;;;22.31;24.77
14293;BME280;62290;59.420;17.842;2023-12-20T06:03:05;98987.63;;;22.31;24.67
14293;BME280;62290;59.420;17.842;2023-12-20T06:05:33;98971.00;;;22.19;24.61
14293;BME280;62290;59.420;17.842;2023-12-20T06:08:01;98978.91;;;22.21;24.76
14293;BME280;62290;59.420;17.842;2023-12-20T06:10:29;98985.78;;;22.23;24.95
14293;BME280;62290;59.420;17.842;2023-12-20T06:12:57;98995.66;;;22.31;24.62
14293;BME280;62290;59.420;17.842;2023-12-20T06:15:27;98983.25;;;22.30;24.88
14293;BME280;62290;59.420;17.842;2023-12-20T06:17:55;98972.50;;;22.30;24.66
14293;BME280;62290;59.420;17.842;2023-12-20T06:20:26;98969.16;;;22.28;24.96
14293;BME280;62290;59.420;17.842;2023-12-20T06:22:54;98968.31;;;22.27;24.82
14293;BME280;62290;59.420;17.842;2023-12-20T06:25:22;98967.47;;;22.27;24.92
14293;BME280;62290;59.420;17.842;2023-12-20T06:27:50;98964.78;;;22.27;24.87
14293;BME280;62290;59.420;17.842;2023-12-20T06:30:18;98960.44;;;22.26;24.93
14293;BME280;62290;59.420;17.842;2023-12-20T06:32:46;98962.94;;;22.27;24.98
14293;BME280;62290;59.420;17.842;2023-12-20T06:35:14;98960.13;;;22.29;24.75
14293;BME280;62290;59.420;17.842;2023-12-20T06:37:44;98957.25;;;22.30;24.89
14293;BME280;62290;59.420;17.842;2023-12-20T06:40:12;98952.41;;;22.34;24.87
14293;BME280;62290;59.420;17.842;2023-12-20T06:42:44;98939.00;;;22.34;24.90
14293;BME280;62290;59.420;17.842;2023-12-20T06:45:27;98944.69;;;22.39;24.88
14293;BME280;62290;59.420;17.842;2023-12-20T06:47:55;98940.16;;;22.39;24.43
14293;BME280;62290;59.420;17.842;2023-12-20T06:50:23;98939.81;;;22.42;24.57
14293;BME280;62290;59.420;17.842;2023-12-20T06:52:52;98946.84;;;22.43;25.04
14293;BME280;62290;59.420;17.842;2023-12-20T06:55:20;98942.34;;;22.44;25.35
14293;BME280;62290;59.420;17.842;2023-12-20T06:57:48;98916.66;;;22.25;25.51
14293;BME280;62290;59.420;17.842;2023-12-20T07:00:17;98942.47;;;22.42;25.60
14293;BME280;62290;59.420;17.842;2023-12-20T07:02:47;98951.56;;;22.41;25.15
14293;BME280;62290;59.420;17.842;2023-12-20T07:05:16;98943.84;;;22.38;25.29
14293;BME280;62290;59.420;17.842;2023-12-20T07:07:46;98953.06;;;22.36;25.43
14293;BME280;62290;59.420;17.842;2023-12-20T07:10:16;98954.91;;;22.35;25.38
14293;BME280;62290;59.420;17.842;2023-12-20T07:12:44;98952.88;;;22.29;25.36
14293;BME280;62290;59.420;17.842;2023-12-20T07:15:13;98951.88;;;22.30;25.31
14293;BME280;62290;59.420;17.842;2023-12-20T07:17:41;98957.44;;;22.29;25.04
14293;BME280;62290;59.420;17.842;2023-12-20T07:20:10;98952.06;;;22.29;25.04
14293;BME280;62290;59.420;17.842;2023-12-20T07:22:38;98943.84;;;22.30;24.94
14293;BME280;62290;59.420;17.842;2023-12-20T07:25:07;98953.72;;;22.30;25.05
14293;BME280;62290;59.420;17.842;2023-12-20T07:27:37;98949.38;;;22.29;25.04
14293;BME280;62290;59.420;17.842;2023-12-20T07:30:08;98947.88;;;22.26;25.11
14293;BME280;62290;59.420;17.842;2023-12-20T07:32:36;98945.34;;;22.25;24.85
14293;BME280;62290;59.420;17.842;2023-12-20T07:35:05;98936.44;;;22.24;25.02
14293;BME280;62290;59.420;17.842;2023-12-20T07:37:33;98926.75;;;22.23;24.86
14293;BME280;62290;59.420;17.842;2023-12-20T07:40:01;98925.72;;;22.24;24.92
14293;BME280;62290;59.420;17.842;2023-12-20T07:42:30;98919.53;;;22.24;24.72
14293;BME280;62290;59.420;17.842;2023-12-20T07:44:59;98922.22;;;22.24;24.79
14293;BME280;62290;59.420;17.842;2023-12-20T07:47:27;98913.47;;;22.22;25.11
14293;BME280;62290;59.420;17.842;2023-12-20T07:49:55;98909.97;;;22.21;24.97
14293;BME280;62290;59.420;17.842;2023-12-20T07:52:24;98915.34;;;22.21;25.03
14293;BME280;62290;59.420;17.842;2023-12-20T07:54:52;98909.28;;;22.19;24.72
14293;BME280;62290;59.420;17.842;2023-12-20T07:57:20;98899.56;;;22.18;24.99
14293;BME280;62290;59.420;17.842;2023-12-20T07:59:48;98905.94;;;22.17;25.02
14293;BME280;62290;59.420;17.842;2023-12-20T08:02:18;98897.88;;;22.17;24.88
14293;BME280;62290;59.420;17.842;2023-12-20T08:04:46;98899.56;;;22.18;24.75
14293;BME280;62290;59.420;17.842;2023-12-20T08:07:13;98899.56;;;22.18;24.70
14293;BME280;62290;59.420;17.842;2023-12-20T08:09:41;98894.38;;;22.17;24.83
14293;BME280;62290;59.420;17.842;2023-12-20T08:12:10;98898.75;;;22.18;24.67
14293;BME280;62290;59.420;17.842;2023-12-20T08:14:38;98904.94;;;22.18;24.69
14293;BME280;62290;59.420;17.842;2023-12-20T08:17:06;98895.22;;;22.17;24.96
14293;BME280;62290;59.420;17.842;2023-12-20T08:19:36;98895.22;;;22.17;24.62
14293;BME280;62290;59.420;17.842;2023-12-20T08:22:04;98898.88;;;22.16;24.53
14293;BME280;62290;59.420;17.842;2023-12-20T08:24:32;98886.50;;;22.15;24.58
14293;BME280;62290;59.420;17.842;2023-12-20T08:26:59;98895.53;;;22.14;24.60
14293;BME280;62290;59.420;17.842;2023-12-20T08:29:27;98889.19;;;22.15;24.71
14293;BME280;62290;59.420;17.842;2023-12-20T08:31:56;98890.16;;;22.14;24.62
14293;BME280;62290;59.420;17.842;2023-12-20T08:34:24;98894.88;;;22.12;24.50
14293;BME280;62290;59.420;17.842;2023-12-20T08:36:53;98890.16;;;22.14;24.74
14293;BME280;62290;59.420;17.842;2023-12-20T08:39:21;98888.50;;;22.13;24.78
14293;BME280;62290;59.420;17.842;2023-12-20T08:41:49;98875.25;;;22.11;24.90
14293;BME280;62290;59.420;17.842;2023-12-20T08:44:17;98879.63;;;22.12;24.52
14293;BME280;62290;59.420;17.842;2023-12-20T08:46:45;98877.94;;;22.11;24.67
14293;BME280;62290;59.420;17.842;2023-12-20T08:49:13;98873.59;;;22.10;24.63
14293;BME280;62290;59.420;17.842;2023-12-20T08:51:42;98870.72;;;22.12;24.61
14293;BME280;62290;59.420;17.842;2023-12-20T08:54:11;98869.75;;;22.13;24.72
14293;BME280;62290;59.420;17.842;2023-12-20T08:56:40;98866.53;;;22.09;24.70
14293;BME280;62290;59.420;17.842;2023-12-20T08:59:08;98848.94;;;21.99;24.64
14293;BME280;62290;59.420;17.842;2023-12-20T09:01:36;98867.06;;;22.13;24.62
14293;BME280;62290;59.420;17.842;2023-12-20T09:04:04;98868.03;;;22.12;24.90
14293;BME280;62290;59.420;17.842;2023-12-20T09:06:33;98863.69;;;22.11;24.51
14293;BME280;62290;59.420;17.842;2023-12-20T09:09:01;98860.19;;;22.10;24.77
14293;BME280;62290;59.420;17.842;2023-12-20T09:11:30;98860.34;;;22.09;24.83
14293;BME280;62290;59.420;17.842;2023-12-20T09:13:58;98862.88;;;22.10;24.63
14293;BME280;62290;59.420;17.842;2023-12-20T09:16:26;98861.19;;;22.09;24.92
14293;BME280;62290;59.420;17.842;2023-12-20T09:18:54;98860.34;;;22.09;24.96
14293;BME280;62290;59.420;17.842;2023-12-20T09:21:23;98853.13;;;22.09;24.86
14293;BME280;62290;59.420;17.842;2023-12-20T09:23:51;98858.50;;;22.09;24.81
14293;BME280;62290;59.420;17.842;2023-12-20T09:26:18;98859.47;;;22.08;24.92
14293;BME280;62290;59.420;17.842;2023-12-20T09:28:48;98845.94;;;22.10;24.63
14293;BME280;62290;59.420;17.842;2023-12-20T09:31:16;98848.75;;;22.08;24.72
14293;BME280;62290;59.420;17.842;2023-12-20T09:33:44;98839.06;;;22.07;24.64
14293;BME280;62290;59.420;17.842;2023-12-20T09:36:13;98829.31;;;22.06;24.85
14293;BME280;62290;59.420;17.842;2023-12-20T09:38:41;98831.16;;;22.06;24.87
14293;BME280;62290;59.420;17.842;2023-12-20T09:41:12;98823.09;;;22.06;24.66
14293;BME280;62290;59.420;17.842;2023-12-20T09:43:41;98823.09;;;22.06;24.53
14293;BME280;62290;59.420;17.842;2023-12-20T09:46:12;98813.22;;;22.06;24.58
14293;BME280;62290;59.420;17.842;2023-12-20T09:48:44;98810.53;;;22.06;24.61
14293;BME280;62290;59.420;17.842;2023-12-20T09:51:12;98797.97;;;22.07;24.73
14293;BME280;62290;59.420;17.842;2023-12-20T09:53:41;98797.13;;;22.06;24.74
14293;BME280;62290;59.420;17.842;2023-12-20T09:56:10;98790.13;;;22.05;24.85
14293;BME280;62290;59.420;17.842;2023-12-20T09:58:39;98783.91;;;22.05;24.87
14293;BME280;62290;59.420;17.842;2023-12-20T10:01:07;98782.22;;;22.04;24.70
14293;BME280;62290;59.420;17.842;2023-12-20T10:03:39;98771.47;;;22.04;24.62
14293;BME280;62290;59.420;17.842;2023-12-20T10:06:09;98773.31;;;22.03;24.95
14293;BME280;62290;59.420;17.842;2023-12-20T10:08:38;98767.16;;;22.03;24.63
14293;BME280;62290;59.420;17.842;2023-12-20T10:11:06;98761.78;;;22.03;24.92
14293;BME280;62290;59.420;17.842;2023-12-20T10:13:39;98750.69;;;21.98;24.78
14293;BME280;62290;59.420;17.842;2023-12-20T10:16:07;98751.22;;;22.01;24.79
14293;BME280;62290;59.420;17.842;2023-12-20T10:18:36;98743.34;;;22.00;24.95
14293;BME280;62290;59.420;17.842;2023-12-20T10:21:06;98735.44;;;21.98;24.99
14293;BME280;62290;59.420;17.842;2023-12-20T10:23:34;98732.63;;;22.00;24.77
14293;BME280;62290;59.420;17.842;2023-12-20T10:26:02;98731.78;;;21.99;25.14
14293;BME280;62290;59.420;17.842;2023-12-20T10:28:33;98721.88;;;22.00;24.84
14293;BME280;62290;59.420;17.842;2023-12-20T10:31:02;98718.19;;;22.01;25.15
14293;BME280;62290;59.420;17.842;2023-12-20T10:33:31;98697.09;;;21.90;24.84
14293;BME280;62290;59.420;17.842;2023-12-20T10:36:01;98710.97;;;22.01;25.07
14293;BME280;62290;59.420;17.842;2023-12-20T10:38:30;98703.94;;;22.00;24.93
14293;BME280;62290;59.420;17.842;2023-12-20T10:40:58;98707.63;;;21.99;25.19
14293;BME280;62290;59.420;17.842;2023-12-20T10:43:28;98696.41;;;21.96;25.18
14293;BME280;62290;59.420;17.842;2023-12-20T10:45:59;98697.06;;;21.98;25.27
14293;BME280;62290;59.420;17.842;2023-12-20T10:48:28;98673.63;;;21.84;25.14
14293;BME280;62290;59.420;17.842;2023-12-20T10:50:57;98699.75;;;21.98;25.08
14293;BME280;62290;59.420;17.842;2023-12-20T10:53:27;98689.84;;;21.98;25.43
14293;BME280;62290;59.420;17.842;2023-12-20T10:55:55;98684.69;;;21.97;25.37
14293;BME280;62290;59.420;17.842;2023-12-20T10:58:24;98677.63;;;21.96;25.21
14293;BME280;62290;59.420;17.842;2023-12-20T11:00:59;98668.59;;;21.97;25.17
14293;BME280;62290;59.420;17.842;2023-12-20T11:03:31;98668.75;;;21.95;25.13
14293;BME280;62290;59.420;17.842;2023-12-20T11:06:05;98663.38;;;21.95;25.18
14293;BME280;62290;59.420;17.842;2023-12-20T11:08:44;98659.69;;;21.96;25.21
14293;BME280;62290;59.420;17.842;2023-12-20T11:11:18;98653.50;;;21.96;25.30
14293;BME280;62290;59.420;17.842;2023-12-20T11:13:55;98651.00;;;21.94;24.89
14293;BME280;62290;59.420;17.842;2023-12-20T11:16:25;98643.09;;;21.93;25.14
14293;BME280;62290;59.420;17.842;2023-12-20T11:19:06;98649.50;;;21.92;25.08
14293;BME280;62290;59.420;17.842;2023-12-20T11:21:34;98646.81;;;21.92;24.84
14293;BME280;62290;59.420;17.842;2023-12-20T11:24:05;98629.38;;;21.88;25.27
14293;BME280;62290;59.420;17.842;2023-12-20T11:26:33;98632.38;;;21.85;24.89
14293;BME280;62290;59.420;17.842;2023-12-20T11:29:32;98628.06;;;21.92;25.13
14293;BME280;62290;59.420;17.842;2023-12-20T11:32:02;98630.06;;;21.90;25.07
14293;BME280;62290;59.420;17.842;2023-12-20T11:34:32;98620.16;;;21.90;25.17
14293;BME280;62290;59.420;17.842;2023-12-20T11:37:03;98619.34;;;21.90;25.18
14293;BME280;62290;59.420;17.842;2023-12-20T11:39:32;98618.50;;;21.89;25.03
14293;BME280;62290;59.420;17.842;2023-12-20T11:42:04;98611.31;;;21.90;25.04
14293;BME280;62290;59.420;17.842;2023-12-20T11:44:33;98608.78;;;21.88;24.99
14293;BME280;62290;59.420;17.842;2023-12-20T11:47:00;98591.69;;;21.89;24.79
14293;BME280;62290;59.420;17.842;2023-12-20T11:49:28;98599.88;;;21.88;24.71
14293;BME280;62290;59.420;17.842;2023-12-20T11:51:57;98589.16;;;21.88;24.77
14293;BME280;62290;59.420;17.842;2023-12-20T11:54:27;98584.63;;;21.88;25.00
14293;BME280;62290;59.420;17.842;2023-12-20T11:56:56;98534.13;;;21.61;24.91
14293;BME280;62290;59.420;17.842;2023-12-20T11:59:24;98575.75;;;21.88;24.81
14293;BME280;62290;59.420;17.842;2023-12-20T12:01:52;98575.09;;;21.86;24.74
14293;BME280;62290;59.420;17.842;2023-12-20T12:04:23;98576.91;;;21.85;25.04
14293;BME280;62290;59.420;17.842;2023-12-20T12:06:53;98575.41;;;21.83;24.67
14293;BME280;62290;59.420;17.842;2023-12-20T12:09:21;98570.03;;;21.83;24.80
14293;BME280;62290;59.420;17.842;2023-12-20T12:11:49;98567.22;;;21.84;24.76
14293;BME280;62290;59.420;17.842;2023-12-20T12:14:18;98561.00;;;21.84;24.98
14293;BME280;62290;59.420;17.842;2023-12-20T12:16:47;98562.00;;;21.83;24.75
14293;BME280;62290;59.420;17.842;2023-12-20T12:19:22;98568.22;;;21.83;25.00
14293;BME280;62290;59.420;17.842;2023-12-20T12:21:51;98554.16;;;21.81;24.66
14293;BME280;62290;59.420;17.842;2023-12-20T12:24:20;98550.63;;;21.81;25.07
14293;BME280;62290;59.420;17.842;2023-12-20T12:26:51;98553.31;;;21.81;24.89
14293;BME280;62290;59.420;17.842;2023-12-20T12:29:21;98548.94;;;21.80;24.86
14293;BME280;62290;59.420;17.842;2023-12-20T12:31:49;98526.72;;;21.71;24.73
14293;BME280;62290;59.420;17.842;2023-12-20T12:34:17;98533.03;;;21.78;25.11
14293;BME280;62290;59.420;17.842;2023-12-20T12:36:46;98532.38;;;21.76;24.69
14293;BME280;62290;59.420;17.842;2023-12-20T12:39:15;98535.91;;;21.77;25.11
14293;BME280;62290;59.420;17.842;2023-12-20T12:41:43;98533.22;;;21.77;25.13
14293;BME280;62290;59.420;17.842;2023-12-20T12:44:11;98529.53;;;21.78;24.75
14293;BME280;62290;59.420;17.842;2023-12-20T12:46:45;98519.84;;;21.69;24.88
14293;BME280;62290;59.420;17.842;2023-12-20T12:49:13;98526.19;;;21.76;24.90
14293;BME280;62290;59.420;17.842;2023-12-20T12:51:42;98527.03;;;21.76;25.00
14293;BME280;62290;59.420;17.842;2023-12-20T12:54:11;98527.03;;;21.76;25.06
14293;BME280;62290;59.420;17.842;2023-12-20T12:56:40;98514.63;;;21.75;25.06
14293;BME280;62290;59.420;17.842;2023-12-20T12:59:08;98512.97;;;21.74;24.86